Main page
METAR-TAF:

METAR-TAF

Airports :

Gran Canaria Airport

Gran Canaria, Spain

latitude: 27-56N, longitude: 015-23W, elevation: 23 m

Current weather observation

The report was made 23 minutes ago, at 20:30 UTC
Wind 20 kt from the North
Temperature 18°C
Humidity 73%
Pressure 1016 hPa
Visibility 10 km or more
Scattered clouds at a height of 2500 ft

METAR: GCLP 212030Z 01020KT 9999 SCT025 18/13 Q1016 NOSIG

Time: 20:53 (20:53 UTC)

Forecast

The report was made 53 minutes ago, at 20:00 UTC
Forecast valid from 21 at 21 UTC to 22 at 21 UTC
Wind 20 kt from the North
Visibility 10 km or more
Few clouds at a height of 2500 ft
Probability 40% :
Temporary
from 22 at 11 UTC to 22 at 21 UTC
Wind 22 kt from the North with gusts up to 34 kt

TAF: GCLP 212000Z 2121/2221 01020KT 9999 FEW025 TX22/2215Z TN16/2206Z PROB40 TEMPO 2211/2221 01022G34KT

Weather observations and forecasts of more than 4000 airports (METAR and TAF reports).

The available stations are represented by yellow and red dots on the map.

Hover mouse over dot to see the name of the station.

Then click to see weather observations and forecasts.

To change the map : click on the green buttons with a black cross to zoom in, on the green button with a dash to zoom out, or on the green arrows for adjacent maps.


METAR-TAF: